sensor_id;sensor_type;location;lat;lon;timestamp;P1;durP1;ratioP1;P2;durP2;ratioP2
44272;SDS011;29964;17.182;-96.766;2022-11-15T00:01:02;0.77;;;0.40;;
44272;SDS011;29964;17.182;-96.766;2022-11-15T00:03:32;1.48;;;0.70;;
44272;SDS011;29964;17.182;-96.766;2022-11-15T00:06:02;11.85;;;1.15;;
44272;SDS011;29964;17.182;-96.766;2022-11-15T00:08:30;3.47;;;1.48;;
44272;SDS011;29964;17.182;-96.766;2022-11-15T00:10:58;13.05;;;5.32;;
44272;SDS011;29964;17.182;-96.766;2022-11-15T00:13:25;8.75;;;5.43;;
44272;SDS011;29964;17.182;-96.766;2022-11-15T00:15:51;11.68;;;5.65;;
44272;SDS011;29964;17.182;-96.766;2022-11-15T00:18:18;10.23;;;4.40;;
44272;SDS011;29964;17.182;-96.766;2022-11-15T00:20:45;6.80;;;3.00;;
44272;SDS011;29964;17.182;-96.766;2022-11-15T00:23:12;6.28;;;3.72;;
44272;SDS011;29964;17.182;-96.766;2022-11-15T00:25:41;2.20;;;1.55;;
44272;SDS011;29964;17.182;-96.766;2022-11-15T00:28:07;2.75;;;1.60;;
44272;SDS011;29964;17.182;-96.766;2022-11-15T00:30:34;3.25;;;1.42;;
44272;SDS011;29964;17.182;-96.766;2022-11-15T00:33:02;2.30;;;1.35;;
44272;SDS011;29964;17.182;-96.766;2022-11-15T00:35:30;5.88;;;2.17;;
44272;SDS011;29964;17.182;-96.766;2022-11-15T00:37:58;1.10;;;0.93;;
44272;SDS011;29964;17.182;-96.766;2022-11-15T00:40:24;6.55;;;1.85;;
44272;SDS011;29964;17.182;-96.766;2022-11-15T00:42:51;4.10;;;2.00;;
44272;SDS011;29964;17.182;-96.766;2022-11-15T00:45:18;5.00;;;1.02;;
44272;SDS011;29964;17.182;-96.766;2022-11-15T00:47:45;1.20;;;0.75;;
44272;SDS011;29964;17.182;-96.766;2022-11-15T00:50:12;0.98;;;0.73;;
44272;SDS011;29964;17.182;-96.766;2022-11-15T00:52:38;2.22;;;1.27;;
44272;SDS011;29964;17.182;-96.766;2022-11-15T00:55:05;21.43;;;1.13;;
44272;SDS011;29964;17.182;-96.766;2022-11-15T00:57:32;6.23;;;1.17;;
44272;SDS011;29964;17.182;-96.766;2022-11-15T00:59:59;20.43;;;0.97;;
44272;SDS011;29964;17.182;-96.766;2022-11-15T01:02:25;3.77;;;1.53;;
44272;SDS011;29964;17.182;-96.766;2022-11-15T01:04:53;3.50;;;1.23;;
44272;SDS011;29964;17.182;-96.766;2022-11-15T01:07:20;2.53;;;1.30;;
44272;SDS011;29964;17.182;-96.766;2022-11-15T01:09:46;4.43;;;1.10;;
44272;SDS011;29964;17.182;-96.766;2022-11-15T01:12:13;1.60;;;1.03;;
44272;SDS011;29964;17.182;-96.766;2022-11-15T01:14:39;1.97;;;1.17;;
44272;SDS011;29964;17.182;-96.766;2022-11-15T01:17:06;1.83;;;1.07;;
44272;SDS011;29964;17.182;-96.766;2022-11-15T01:19:33;4.07;;;1.60;;
44272;SDS011;29964;17.182;-96.766;2022-11-15T01:21:59;3.00;;;1.47;;
44272;SDS011;29964;17.182;-96.766;2022-11-15T01:24:26;5.17;;;1.87;;
44272;SDS011;29964;17.182;-96.766;2022-11-15T01:26:53;2.03;;;1.20;;
44272;SDS011;29964;17.182;-96.766;2022-11-15T01:29:20;8.30;;;2.67;;
44272;SDS011;29964;17.182;-96.766;2022-11-15T01:31:46;4.80;;;2.87;;
44272;SDS011;29964;17.182;-96.766;2022-11-15T01:34:13;13.43;;;2.73;;
44272;SDS011;29964;17.182;-96.766;2022-11-15T01:36:40;1.70;;;1.30;;
44272;SDS011;29964;17.182;-96.766;2022-11-15T01:39:07;9.27;;;3.40;;
44272;SDS011;29964;17.182;-96.766;2022-11-15T01:41:34;7.93;;;5.00;;
44272;SDS011;29964;17.182;-96.766;2022-11-15T01:46:46;3.33;;;1.60;;
44272;SDS011;29964;17.182;-96.766;2022-11-15T01:49:17;2.37;;;1.37;;
44272;SDS011;29964;17.182;-96.766;2022-11-15T01:51:44;5.70;;;1.00;;
44272;SDS011;29964;17.182;-96.766;2022-11-15T01:54:12;2.60;;;1.70;;
44272;SDS011;29964;17.182;-96.766;2022-11-15T01:56:43;5.97;;;1.57;;
44272;SDS011;29964;17.182;-96.766;2022-11-15T01:59:10;7.03;;;2.23;;
44272;SDS011;29964;17.182;-96.766;2022-11-15T02:01:37;1.70;;;1.20;;
44272;SDS011;29964;17.182;-96.766;2022-11-15T02:04:06;6.87;;;1.87;;
44272;SDS011;29964;17.182;-96.766;2022-11-15T02:06:35;4.00;;;1.33;;
44272;SDS011;29964;17.182;-96.766;2022-11-15T02:09:02;9.07;;;1.83;;
44272;SDS011;29964;17.182;-96.766;2022-11-15T02:11:29;9.40;;;1.17;;
44272;SDS011;29964;17.182;-96.766;2022-11-15T02:13:56;3.17;;;1.67;;
44272;SDS011;29964;17.182;-96.766;2022-11-15T02:16:33;1.63;;;1.20;;
44272;SDS011;29964;17.182;-96.766;2022-11-15T02:21:50;2.03;;;1.20;;
44272;SDS011;29964;17.182;-96.766;2022-11-15T02:37:13;1.53;;;1.30;;
44272;SDS011;29964;17.182;-96.766;2022-11-15T02:39:51;1.33;;;0.90;;
44272;SDS011;29964;17.182;-96.766;2022-11-15T02:42:25;2.50;;;1.17;;
44272;SDS011;29964;17.182;-96.766;2022-11-15T02:45:12;1.33;;;0.97;;
44272;SDS011;29964;17.182;-96.766;2022-11-15T02:47:43;2.97;;;1.43;;
44272;SDS011;29964;17.182;-96.766;2022-11-15T02:50:11;2.00;;;1.13;;
44272;SDS011;29964;17.182;-96.766;2022-11-15T02:52:38;1.93;;;0.83;;
44272;SDS011;29964;17.182;-96.766;2022-11-15T02:55:24;2.07;;;1.30;;
44272;SDS011;29964;17.182;-96.766;2022-11-15T02:57:52;0.90;;;0.53;;
44272;SDS011;29964;17.182;-96.766;2022-11-15T03:00:23;1.00;;;0.60;;
44272;SDS011;29964;17.182;-96.766;2022-11-15T03:08:18;1.27;;;0.87;;
44272;SDS011;29964;17.182;-96.766;2022-11-15T03:10:39;2.73;;;1.43;;
44272;SDS011;29964;17.182;-96.766;2022-11-15T03:15:37;1.73;;;0.70;;
44272;SDS011;29964;17.182;-96.766;2022-11-15T03:18:21;0.60;;;0.47;;
44272;SDS011;29964;17.182;-96.766;2022-11-15T03:20:51;0.83;;;0.40;;
44272;SDS011;29964;17.182;-96.766;2022-11-15T03:23:18;0.83;;;0.70;;
44272;SDS011;29964;17.182;-96.766;2022-11-15T03:25:46;4.13;;;1.30;;
44272;SDS011;29964;17.182;-96.766;2022-11-15T03:28:17;0.60;;;0.60;;
44272;SDS011;29964;17.182;-96.766;2022-11-15T03:30:45;2.07;;;1.03;;
44272;SDS011;29964;17.182;-96.766;2022-11-15T03:33:14;1.07;;;0.97;;
44272;SDS011;29964;17.182;-96.766;2022-11-15T03:35:42;1.80;;;0.73;;
44272;SDS011;29964;17.182;-96.766;2022-11-15T03:38:21;1.47;;;0.83;;
44272;SDS011;29964;17.182;-96.766;2022-11-15T03:40:51;2.03;;;1.30;;
44272;SDS011;29964;17.182;-96.766;2022-11-15T03:46:01;2.17;;;0.80;;
44272;SDS011;29964;17.182;-96.766;2022-11-15T03:48:30;1.13;;;0.70;;
44272;SDS011;29964;17.182;-96.766;2022-11-15T03:51:00;1.60;;;0.90;;
44272;SDS011;29964;17.182;-96.766;2022-11-15T03:53:27;1.20;;;0.80;;
44272;SDS011;29964;17.182;-96.766;2022-11-15T03:55:55;0.67;;;0.53;;
44272;SDS011;29964;17.182;-96.766;2022-11-15T03:58:22;0.77;;;0.63;;
44272;SDS011;29964;17.182;-96.766;2022-11-15T04:00:49;2.10;;;1.00;;
44272;SDS011;29964;17.182;-96.766;2022-11-15T04:03:16;11.63;;;1.23;;
44272;SDS011;29964;17.182;-96.766;2022-11-15T04:05:42;2.47;;;1.17;;
44272;SDS011;29964;17.182;-96.766;2022-11-15T04:08:09;1.63;;;0.97;;
44272;SDS011;29964;17.182;-96.766;2022-11-15T04:10:36;2.13;;;1.00;;
44272;SDS011;29964;17.182;-96.766;2022-11-15T04:13:02;2.07;;;1.03;;
44272;SDS011;29964;17.182;-96.766;2022-11-15T04:15:29;2.60;;;1.10;;
44272;SDS011;29964;17.182;-96.766;2022-11-15T04:17:56;1.30;;;0.77;;
44272;SDS011;29964;17.182;-96.766;2022-11-15T04:20:27;10.20;;;1.07;;
44272;SDS011;29964;17.182;-96.766;2022-11-15T04:23:14;0.73;;;0.50;;
44272;SDS011;29964;17.182;-96.766;2022-11-15T04:25:59;1.90;;;1.00;;
44272;SDS011;29964;17.182;-96.766;2022-11-15T04:28:27;1.27;;;0.77;;
44272;SDS011;29964;17.182;-96.766;2022-11-15T04:30:54;0.93;;;0.70;;
44272;SDS011;29964;17.182;-96.766;2022-11-15T04:33:21;0.93;;;0.47;;
44272;SDS011;29964;17.182;-96.766;2022-11-15T04:35:47;1.00;;;0.57;;
44272;SDS011;29964;17.182;-96.766;2022-11-15T04:38:33;0.50;;;0.40;;
44272;SDS011;29964;17.182;-96.766;2022-11-15T04:40:59;2.03;;;1.27;;
44272;SDS011;29964;17.182;-96.766;2022-11-15T04:43:26;1.87;;;0.83;;
44272;SDS011;29964;17.182;-96.766;2022-11-15T04:45:53;1.73;;;1.00;;
44272;SDS011;29964;17.182;-96.766;2022-11-15T04:48:19;0.90;;;0.70;;
44272;SDS011;29964;17.182;-96.766;2022-11-15T04:50:49;1.40;;;0.80;;
44272;SDS011;29964;17.182;-96.766;2022-11-15T04:53:16;0.50;;;0.43;;
44272;SDS011;29964;17.182;-96.766;2022-11-15T04:55:45;2.97;;;0.80;;
44272;SDS011;29964;17.182;-96.766;2022-11-15T04:58:12;2.53;;;1.23;;
44272;SDS011;29964;17.182;-96.766;2022-11-15T05:00:39;0.83;;;0.53;;
44272;SDS011;29964;17.182;-96.766;2022-11-15T05:03:05;0.33;;;0.30;;
44272;SDS011;29964;17.182;-96.766;2022-11-15T05:05:50;1.13;;;0.85;;
44272;SDS011;29964;17.182;-96.766;2022-11-15T05:08:17;0.70;;;0.50;;
44272;SDS011;29964;17.182;-96.766;2022-11-15T05:10:44;1.40;;;0.80;;
44272;SDS011;29964;17.182;-96.766;2022-11-15T05:13:11;1.07;;;0.50;;
44272;SDS011;29964;17.182;-96.766;2022-11-15T05:15:37;0.53;;;0.43;;
44272;SDS011;29964;17.182;-96.766;2022-11-15T05:18:04;0.33;;;0.27;;
44272;SDS011;29964;17.182;-96.766;2022-11-15T05:20:30;0.73;;;0.40;;
44272;SDS011;29964;17.182;-96.766;2022-11-15T05:22:57;1.23;;;0.53;;
44272;SDS011;29964;17.182;-96.766;2022-11-15T05:25:24;0.30;;;0.30;;
44272;SDS011;29964;17.182;-96.766;2022-11-15T05:27:51;4.87;;;0.97;;
44272;SDS011;29964;17.182;-96.766;2022-11-15T05:30:17;1.23;;;0.50;;
44272;SDS011;29964;17.182;-96.766;2022-11-15T05:32:46;0.37;;;0.30;;
44272;SDS011;29964;17.182;-96.766;2022-11-15T05:35:40;0.70;;;0.50;;
44272;SDS011;29964;17.182;-96.766;2022-11-15T05:38:07;4.00;;;0.97;;
44272;SDS011;29964;17.182;-96.766;2022-11-15T05:40:35;0.60;;;0.40;;
44272;SDS011;29964;17.182;-96.766;2022-11-15T05:43:02;0.87;;;0.40;;
44272;SDS011;29964;17.182;-96.766;2022-11-15T05:45:31;1.10;;;0.87;;
44272;SDS011;29964;17.182;-96.766;2022-11-15T05:47:57;1.40;;;0.80;;
44272;SDS011;29964;17.182;-96.766;2022-11-15T05:50:25;1.37;;;0.93;;
44272;SDS011;29964;17.182;-96.766;2022-11-15T05:52:51;3.10;;;1.07;;
44272;SDS011;29964;17.182;-96.766;2022-11-15T05:55:18;2.77;;;0.70;;
44272;SDS011;29964;17.182;-96.766;2022-11-15T05:57:45;0.60;;;0.50;;
44272;SDS011;29964;17.182;-96.766;2022-11-15T06:00:12;0.67;;;0.50;;
44272;SDS011;29964;17.182;-96.766;2022-11-15T06:02:38;1.43;;;0.80;;
44272;SDS011;29964;17.182;-96.766;2022-11-15T06:05:05;1.47;;;0.93;;
44272;SDS011;29964;17.182;-96.766;2022-11-15T06:07:32;0.87;;;0.70;;
44272;SDS011;29964;17.182;-96.766;2022-11-15T06:09:58;1.23;;;0.80;;
44272;SDS011;29964;17.182;-96.766;2022-11-15T06:12:25;1.17;;;0.90;;
44272;SDS011;29964;17.182;-96.766;2022-11-15T06:14:52;1.80;;;0.90;;
44272;SDS011;29964;17.182;-96.766;2022-11-15T06:17:18;1.60;;;0.70;;
44272;SDS011;29964;17.182;-96.766;2022-11-15T06:19:45;0.63;;;0.60;;
44272;SDS011;29964;17.182;-96.766;2022-11-15T06:22:12;1.17;;;0.70;;
44272;SDS011;29964;17.182;-96.766;2022-11-15T06:24:38;1.27;;;0.90;;
44272;SDS011;29964;17.182;-96.766;2022-11-15T06:27:05;3.47;;;2.07;;
44272;SDS011;29964;17.182;-96.766;2022-11-15T06:29:32;4.53;;;1.90;;
44272;SDS011;29964;17.182;-96.766;2022-11-15T06:31:58;2.47;;;1.40;;
44272;SDS011;29964;17.182;-96.766;2022-11-15T06:34:25;1.37;;;0.80;;
44272;SDS011;29964;17.182;-96.766;2022-11-15T06:36:52;5.73;;;1.60;;
44272;SDS011;29964;17.182;-96.766;2022-11-15T06:39:18;1.53;;;1.07;;
44272;SDS011;29964;17.182;-96.766;2022-11-15T06:41:45;2.40;;;1.40;;
44272;SDS011;29964;17.182;-96.766;2022-11-15T06:44:12;3.00;;;1.63;;
44272;SDS011;29964;17.182;-96.766;2022-11-15T06:46:38;2.40;;;1.47;;
44272;SDS011;29964;17.182;-96.766;2022-11-15T06:49:05;2.57;;;1.23;;
44272;SDS011;29964;17.182;-96.766;2022-11-15T06:51:32;1.77;;;1.20;;
44272;SDS011;29964;17.182;-96.766;2022-11-15T06:53:58;1.77;;;1.03;;
44272;SDS011;29964;17.182;-96.766;2022-11-15T06:56:25;1.03;;;0.77;;
44272;SDS011;29964;17.182;-96.766;2022-11-15T06:58:52;4.77;;;1.53;;
44272;SDS011;29964;17.182;-96.766;2022-11-15T07:01:18;2.10;;;1.20;;
44272;SDS011;29964;17.182;-96.766;2022-11-15T07:03:45;4.07;;;1.77;;
44272;SDS011;29964;17.182;-96.766;2022-11-15T07:06:12;3.50;;;1.30;;
44272;SDS011;29964;17.182;-96.766;2022-11-15T07:08:38;0.80;;;0.70;;
44272;SDS011;29964;17.182;-96.766;2022-11-15T07:11:08;4.17;;;1.23;;
44272;SDS011;29964;17.182;-96.766;2022-11-15T07:13:35;2.50;;;1.33;;
44272;SDS011;29964;17.182;-96.766;2022-11-15T07:16:03;1.70;;;1.10;;
44272;SDS011;29964;17.182;-96.766;2022-11-15T07:18:30;0.87;;;0.70;;
44272;SDS011;29964;17.182;-96.766;2022-11-15T07:21:00;3.73;;;1.53;;
44272;SDS011;29964;17.182;-96.766;2022-11-15T07:23:27;1.57;;;1.00;;
44272;SDS011;29964;17.182;-96.766;2022-11-15T07:25:55;0.50;;;0.40;;
44272;SDS011;29964;17.182;-96.766;2022-11-15T07:28:22;0.90;;;0.80;;
44272;SDS011;29964;17.182;-96.766;2022-11-15T07:30:49;1.30;;;0.73;;
44272;SDS011;29964;17.182;-96.766;2022-11-15T07:33:15;0.93;;;0.70;;
44272;SDS011;29964;17.182;-96.766;2022-11-15T07:35:42;2.27;;;1.37;;
44272;SDS011;29964;17.182;-96.766;2022-11-15T07:38:11;1.80;;;1.10;;
44272;SDS011;29964;17.182;-96.766;2022-11-15T07:40:40;9.50;;;1.70;;
44272;SDS011;29964;17.182;-96.766;2022-11-15T07:43:07;0.53;;;0.53;;
44272;SDS011;29964;17.182;-96.766;2022-11-15T07:45:39;2.40;;;0.87;;
44272;SDS011;29964;17.182;-96.766;2022-11-15T07:48:06;0.77;;;0.60;;
44272;SDS011;29964;17.182;-96.766;2022-11-15T07:50:33;0.77;;;0.50;;
44272;SDS011;29964;17.182;-96.766;2022-11-15T07:52:59;0.57;;;0.50;;
44272;SDS011;29964;17.182;-96.766;2022-11-15T07:55:27;1.63;;;0.40;;
44272;SDS011;29964;17.182;-96.766;2022-11-15T07:58:01;0.17;;;0.17;;
44272;SDS011;29964;17.182;-96.766;2022-11-15T08:00:28;1.57;;;1.00;;
44272;SDS011;29964;17.182;-96.766;2022-11-15T08:03:02;0.97;;;0.67;;
44272;SDS011;29964;17.182;-96.766;2022-11-15T08:05:30;0.70;;;0.70;;
44272;SDS011;29964;17.182;-96.766;2022-11-15T08:07:57;0.97;;;0.70;;
44272;SDS011;29964;17.182;-96.766;2022-11-15T08:10:24;0.67;;;0.53;;
44272;SDS011;29964;17.182;-96.766;2022-11-15T08:13:00;1.30;;;0.73;;
44272;SDS011;29964;17.182;-96.766;2022-11-15T08:15:27;0.73;;;0.60;;
44272;SDS011;29964;17.182;-96.766;2022-11-15T08:17:55;2.33;;;0.73;;
44272;SDS011;29964;17.182;-96.766;2022-11-15T08:20:22;0.57;;;0.37;;
44272;SDS011;29964;17.182;-96.766;2022-11-15T08:22:49;3.50;;;1.13;;
44272;SDS011;29964;17.182;-96.766;2022-11-15T08:25:16;0.83;;;0.53;;
44272;SDS011;29964;17.182;-96.766;2022-11-15T08:27:43;1.27;;;0.70;;
44272;SDS011;29964;17.182;-96.766;2022-11-15T08:30:10;0.20;;;0.20;;
44272;SDS011;29964;17.182;-96.766;2022-11-15T08:32:37;2.63;;;1.23;;
44272;SDS011;29964;17.182;-96.766;2022-11-15T08:35:03;0.47;;;0.33;;
44272;SDS011;29964;17.182;-96.766;2022-11-15T08:37:30;1.67;;;0.50;;
44272;SDS011;29964;17.182;-96.766;2022-11-15T08:39:57;0.33;;;0.30;;
44272;SDS011;29964;17.182;-96.766;2022-11-15T08:42:23;0.30;;;0.30;;
44272;SDS011;29964;17.182;-96.766;2022-11-15T08:44:50;1.63;;;0.90;;
44272;SDS011;29964;17.182;-96.766;2022-11-15T08:47:17;0.50;;;0.40;;
44272;SDS011;29964;17.182;-96.766;2022-11-15T08:49:43;7.47;;;0.53;;
44272;SDS011;29964;17.182;-96.766;2022-11-15T08:52:10;0.87;;;0.43;;
44272;SDS011;29964;17.182;-96.766;2022-11-15T08:54:37;0.73;;;0.50;;
44272;SDS011;29964;17.182;-96.766;2022-11-15T08:57:03;1.23;;;0.73;;
44272;SDS011;29964;17.182;-96.766;2022-11-15T08:59:30;0.33;;;0.33;;
44272;SDS011;29964;17.182;-96.766;2022-11-15T09:01:56;0.93;;;0.60;;
44272;SDS011;29964;17.182;-96.766;2022-11-15T09:04:23;0.50;;;0.30;;
44272;SDS011;29964;17.182;-96.766;2022-11-15T09:06:50;1.03;;;0.73;;
44272;SDS011;29964;17.182;-96.766;2022-11-15T09:09:16;0.60;;;0.43;;
44272;SDS011;29964;17.182;-96.766;2022-11-15T09:11:43;1.13;;;0.70;;
44272;SDS011;29964;17.182;-96.766;2022-11-15T09:14:10;1.00;;;0.50;;
44272;SDS011;29964;17.182;-96.766;2022-11-15T09:16:37;0.47;;;0.40;;
44272;SDS011;29964;17.182;-96.766;2022-11-15T09:19:04;1.13;;;1.03;;
44272;SDS011;29964;17.182;-96.766;2022-11-15T09:21:31;0.63;;;0.40;;
44272;SDS011;29964;17.182;-96.766;2022-11-15T09:23:57;0.87;;;0.70;;
44272;SDS011;29964;17.182;-96.766;2022-11-15T09:26:24;1.37;;;0.83;;
44272;SDS011;29964;17.182;-96.766;2022-11-15T09:28:51;0.97;;;0.63;;
44272;SDS011;29964;17.182;-96.766;2022-11-15T09:31:18;2.23;;;0.70;;
44272;SDS011;29964;17.182;-96.766;2022-11-15T09:33:45;0.73;;;0.60;;
44272;SDS011;29964;17.182;-96.766;2022-11-15T09:36:12;1.43;;;0.93;;
44272;SDS011;29964;17.182;-96.766;2022-11-15T09:38:39;3.40;;;1.90;;
44272;SDS011;29964;17.182;-96.766;2022-11-15T09:41:16;0.93;;;0.60;;
44272;SDS011;29964;17.182;-96.766;2022-11-15T09:43:54;1.07;;;0.80;;
44272;SDS011;29964;17.182;-96.766;2022-11-15T09:46:37;1.03;;;0.73;;
44272;SDS011;29964;17.182;-96.766;2022-11-15T09:49:09;1.17;;;0.73;;
44272;SDS011;29964;17.182;-96.766;2022-11-15T09:51:39;1.17;;;0.60;;
44272;SDS011;29964;17.182;-96.766;2022-11-15T09:57:20;2.20;;;1.05;;
44272;SDS011;29964;17.182;-96.766;2022-11-15T10:02:23;0.63;;;0.50;;
44272;SDS011;29964;17.182;-96.766;2022-11-15T10:04:53;1.23;;;0.87;;
44272;SDS011;29964;17.182;-96.766;2022-11-15T10:07:27;0.40;;;0.37;;
44272;SDS011;29964;17.182;-96.766;2022-11-15T10:12:44;4.15;;;1.67;;
44272;SDS011;29964;17.182;-96.766;2022-11-15T10:15:13;0.60;;;0.50;;
44272;SDS011;29964;17.182;-96.766;2022-11-15T10:25:11;1.60;;;0.77;;
44272;SDS011;29964;17.182;-96.766;2022-11-15T10:27:40;0.87;;;0.60;;
44272;SDS011;29964;17.182;-96.766;2022-11-15T10:30:11;2.67;;;1.37;;
44272;SDS011;29964;17.182;-96.766;2022-11-15T10:32:38;1.70;;;1.00;;
44272;SDS011;29964;17.182;-96.766;2022-11-15T10:35:16;0.90;;;0.53;;
44272;SDS011;29964;17.182;-96.766;2022-11-15T10:37:43;1.50;;;1.07;;
44272;SDS011;29964;17.182;-96.766;2022-11-15T10:40:21;2.03;;;0.57;;
44272;SDS011;29964;17.182;-96.766;2022-11-15T10:42:48;1.87;;;1.30;;
44272;SDS011;29964;17.182;-96.766;2022-11-15T10:45:29;3.17;;;1.23;;
44272;SDS011;29964;17.182;-96.766;2022-11-15T10:50:39;0.83;;;0.67;;
44272;SDS011;29964;17.182;-96.766;2022-11-15T10:53:18;0.53;;;0.43;;
44272;SDS011;29964;17.182;-96.766;2022-11-15T10:55:47;0.80;;;0.70;;
44272;SDS011;29964;17.182;-96.766;2022-11-15T11:00:47;0.60;;;0.47;;
44272;SDS011;29964;17.182;-96.766;2022-11-15T11:03:27;0.50;;;0.40;;
44272;SDS011;29964;17.182;-96.766;2022-11-15T11:06:09;0.20;;;0.20;;
44272;SDS011;29964;17.182;-96.766;2022-11-15T11:08:36;6.53;;;1.20;;
44272;SDS011;29964;17.182;-96.766;2022-11-15T11:11:03;1.23;;;0.90;;
44272;SDS011;29964;17.182;-96.766;2022-11-15T11:13:31;0.97;;;0.63;;
44272;SDS011;29964;17.182;-96.766;2022-11-15T11:18:38;1.07;;;0.80;;
44272;SDS011;29964;17.182;-96.766;2022-11-15T11:21:10;1.17;;;0.67;;
44272;SDS011;29964;17.182;-96.766;2022-11-15T11:28:42;1.13;;;0.90;;
44272;SDS011;29964;17.182;-96.766;2022-11-15T11:31:21;0.40;;;0.40;;
44272;SDS011;29964;17.182;-96.766;2022-11-15T11:34:04;0.97;;;0.87;;
44272;SDS011;29964;17.182;-96.766;2022-11-15T11:44:15;0.50;;;0.50;;
44272;SDS011;29964;17.182;-96.766;2022-11-15T11:46:48;1.27;;;0.93;;
44272;SDS011;29964;17.182;-96.766;2022-11-15T11:49:17;0.87;;;0.70;;
44272;SDS011;29964;17.182;-96.766;2022-11-15T11:54:42;0.87;;;0.80;;
44272;SDS011;29964;17.182;-96.766;2022-11-15T11:57:05;0.33;;;0.33;;
44272;SDS011;29964;17.182;-96.766;2022-11-15T11:59:36;0.50;;;0.40;;
44272;SDS011;29964;17.182;-96.766;2022-11-15T12:02:38;5.73;;;0.70;;
44272;SDS011;29964;17.182;-96.766;2022-11-15T12:07:41;0.80;;;0.65;;
44272;SDS011;29964;17.182;-96.766;2022-11-15T12:10:17;0.60;;;0.60;;
44272;SDS011;29964;17.182;-96.766;2022-11-15T12:12:49;0.77;;;0.63;;
44272;SDS011;29964;17.182;-96.766;2022-11-15T12:15:18;1.07;;;0.77;;
44272;SDS011;29964;17.182;-96.766;2022-11-15T12:17:46;2.83;;;1.03;;
44272;SDS011;29964;17.182;-96.766;2022-11-15T12:20:17;1.10;;;1.00;;
44272;SDS011;29964;17.182;-96.766;2022-11-15T12:22:46;1.07;;;0.73;;
44272;SDS011;29964;17.182;-96.766;2022-11-15T12:25:18;0.77;;;0.70;;
44272;SDS011;29964;17.182;-96.766;2022-11-15T12:27:51;1.10;;;0.87;;
44272;SDS011;29964;17.182;-96.766;2022-11-15T12:30:19;0.37;;;0.33;;
44272;SDS011;29964;17.182;-96.766;2022-11-15T12:33:04;0.97;;;0.60;;
44272;SDS011;29964;17.182;-96.766;2022-11-15T12:35:40;0.10;;;0.10;;
44272;SDS011;29964;17.182;-96.766;2022-11-15T12:38:13;2.23;;;0.80;;
44272;SDS011;29964;17.182;-96.766;2022-11-15T12:41:13;0.67;;;0.60;;
44272;SDS011;29964;17.182;-96.766;2022-11-15T12:43:41;0.27;;;0.27;;
44272;SDS011;29964;17.182;-96.766;2022-11-15T12:46:13;0.77;;;0.63;;
44272;SDS011;29964;17.182;-96.766;2022-11-15T12:51:06;0.70;;;0.47;;
44272;SDS011;29964;17.182;-96.766;2022-11-15T12:53:33;1.23;;;0.97;;
44272;SDS011;29964;17.182;-96.766;2022-11-15T12:58:49;0.87;;;0.50;;
44272;SDS011;29964;17.182;-96.766;2022-11-15T13:09:52;0.30;;;0.30;;
44272;SDS011;29964;17.182;-96.766;2022-11-15T13:11:53;6.30;;;1.33;;
44272;SDS011;29964;17.182;-96.766;2022-11-15T13:14:39;4.47;;;1.10;;
44272;SDS011;29964;17.182;-96.766;2022-11-15T13:19:42;2.73;;;1.53;;
44272;SDS011;29964;17.182;-96.766;2022-11-15T13:22:09;4.60;;;1.17;;
44272;SDS011;29964;17.182;-96.766;2022-11-15T13:24:55;8.23;;;1.33;;
44272;SDS011;29964;17.182;-96.766;2022-11-15T13:27:22;1.00;;;0.90;;
44272;SDS011;29964;17.182;-96.766;2022-11-15T13:29:48;8.90;;;2.40;;
44272;SDS011;29964;17.182;-96.766;2022-11-15T13:32:15;0.80;;;0.60;;
44272;SDS011;29964;17.182;-96.766;2022-11-15T13:34:45;1.30;;;1.07;;
44272;SDS011;29964;17.182;-96.766;2022-11-15T13:39:48;2.73;;;1.60;;
44272;SDS011;29964;17.182;-96.766;2022-11-15T13:42:19;6.20;;;1.97;;
44272;SDS011;29964;17.182;-96.766;2022-11-15T13:45:03;5.33;;;1.67;;
44272;SDS011;29964;17.182;-96.766;2022-11-15T13:47:31;5.32;;;2.05;;
44272;SDS011;29964;17.182;-96.766;2022-11-15T13:49:58;46.47;;;2.70;;
44272;SDS011;29964;17.182;-96.766;2022-11-15T13:52:31;15.50;;;2.70;;
44272;SDS011;29964;17.182;-96.766;2022-11-15T13:55:10;9.00;;;1.97;;
44272;SDS011;29964;17.182;-96.766;2022-11-15T13:57:42;9.03;;;1.70;;
44272;SDS011;29964;17.182;-96.766;2022-11-15T14:00:24;7.07;;;1.47;;
44272;SDS011;29964;17.182;-96.766;2022-11-15T14:02:51;2.07;;;0.93;;
44272;SDS011;29964;17.182;-96.766;2022-11-15T14:05:20;7.67;;;1.30;;
44272;SDS011;29964;17.182;-96.766;2022-11-15T14:07:54;2.07;;;0.87;;
44272;SDS011;29964;17.182;-96.766;2022-11-15T14:10:42;11.33;;;0.70;;
44272;SDS011;29964;17.182;-96.766;2022-11-15T14:13:26;0.53;;;0.37;;
44272;SDS011;29964;17.182;-96.766;2022-11-15T14:15:52;3.13;;;1.00;;
44272;SDS011;29964;17.182;-96.766;2022-11-15T14:21:07;4.15;;;1.50;;
44272;SDS011;29964;17.182;-96.766;2022-11-15T14:23:34;1.30;;;0.60;;
44272;SDS011;29964;17.182;-96.766;2022-11-15T14:26:01;0.80;;;0.50;;
44272;SDS011;29964;17.182;-96.766;2022-11-15T14:28:29;1.10;;;0.60;;
44272;SDS011;29964;17.182;-96.766;2022-11-15T14:30:59;0.67;;;0.43;;
44272;SDS011;29964;17.182;-96.766;2022-11-15T14:33:38;6.20;;;1.20;;
44272;SDS011;29964;17.182;-96.766;2022-11-15T14:36:11;1.23;;;0.57;;
44272;SDS011;29964;17.182;-96.766;2022-11-15T14:38:38;8.03;;;0.77;;
44272;SDS011;29964;17.182;-96.766;2022-11-15T14:41:04;1.60;;;0.93;;
44272;SDS011;29964;17.182;-96.766;2022-11-15T14:43:31;0.60;;;0.60;;
44272;SDS011;29964;17.182;-96.766;2022-11-15T14:45:58;1.37;;;0.80;;
44272;SDS011;29964;17.182;-96.766;2022-11-15T14:48:25;2.07;;;1.17;;
44272;SDS011;29964;17.182;-96.766;2022-11-15T14:50:52;2.87;;;1.30;;
44272;SDS011;29964;17.182;-96.766;2022-11-15T14:53:18;2.23;;;0.93;;
44272;SDS011;29964;17.182;-96.766;2022-11-15T14:55:45;4.03;;;1.20;;
44272;SDS011;29964;17.182;-96.766;2022-11-15T14:58:12;1.60;;;0.87;;
44272;SDS011;29964;17.182;-96.766;2022-11-15T15:00:39;0.80;;;0.70;;
44272;SDS011;29964;17.182;-96.766;2022-11-15T15:03:06;1.13;;;0.80;;
44272;SDS011;29964;17.182;-96.766;2022-11-15T15:05:35;1.87;;;0.93;;
44272;SDS011;29964;17.182;-96.766;2022-11-15T15:08:02;1.90;;;1.20;;
44272;SDS011;29964;17.182;-96.766;2022-11-15T15:10:31;2.13;;;1.40;;
44272;SDS011;29964;17.182;-96.766;2022-11-15T15:12:58;4.63;;;1.67;;
44272;SDS011;29964;17.182;-96.766;2022-11-15T15:15:26;2.00;;;1.33;;
44272;SDS011;29964;17.182;-96.766;2022-11-15T15:17:53;3.33;;;1.60;;
44272;SDS011;29964;17.182;-96.766;2022-11-15T15:20:19;3.03;;;1.63;;
44272;SDS011;29964;17.182;-96.766;2022-11-15T15:22:46;2.80;;;1.33;;
44272;SDS011;29964;17.182;-96.766;2022-11-15T15:25:20;2.67;;;1.77;;
44272;SDS011;29964;17.182;-96.766;2022-11-15T15:30:13;3.63;;;1.53;;
44272;SDS011;29964;17.182;-96.766;2022-11-15T15:32:40;5.23;;;2.57;;
44272;SDS011;29964;17.182;-96.766;2022-11-15T15:35:07;3.57;;;1.67;;
44272;SDS011;29964;17.182;-96.766;2022-11-15T15:37:36;7.03;;;2.90;;
44272;SDS011;29964;17.182;-96.766;2022-11-15T15:40:02;8.17;;;3.10;;
44272;SDS011;29964;17.182;-96.766;2022-11-15T15:42:29;2.80;;;1.70;;
44272;SDS011;29964;17.182;-96.766;2022-11-15T15:44:56;9.60;;;1.57;;
44272;SDS011;29964;17.182;-96.766;2022-11-15T15:47:23;9.47;;;2.30;;
44272;SDS011;29964;17.182;-96.766;2022-11-15T15:49:50;4.63;;;1.40;;
44272;SDS011;29964;17.182;-96.766;2022-11-15T15:52:17;5.60;;;1.80;;
44272;SDS011;29964;17.182;-96.766;2022-11-15T15:54:44;3.50;;;1.63;;
44272;SDS011;29964;17.182;-96.766;2022-11-15T15:57:11;2.78;;;1.35;;
44272;SDS011;29964;17.182;-96.766;2022-11-15T15:59:38;2.13;;;1.33;;
44272;SDS011;29964;17.182;-96.766;2022-11-15T16:02:05;1.83;;;1.25;;
44272;SDS011;29964;17.182;-96.766;2022-11-15T16:04:32;3.50;;;2.03;;
44272;SDS011;29964;17.182;-96.766;2022-11-15T16:06:59;5.13;;;1.92;;